หน้าหลัก
METAR-TAF:

METAR-TAF

ท่าอากาศยาน :

กลอสเตอร์, อังกฤษ

ละติจูด: 51-54N, ลองจิจูด: 002-10W, ความสูง: 29 ม.

การสังเกตสภาพอากาศปัจจุบัน

รายงานได้ทำขึ้นเมื่อ 5 ชั่วโมงและ 50 นาทีที่แล้ว ณ เวลา 18:20 UTC
ลม 9 นอตจากเหนือ/ตะวันตกเฉียงเหนือ
อุณหภูมิ 15°C
ความชื้น 72%
ความกดอากาศ 1016 hPa
ทัศนวิสัย 10 กม. หรือมากกว่า
มีเมฆน้อยที่ความสูง 2400 ฟุต
มีเมฆกระจายเป็นบางส่วนที่ความสูง 3300 ฟุต

METAR: EGBJ 181820Z 33009KT 9999 FEW024 SCT033 15/10 Q1016

เวลา: 01:10 (00:10 UTC)

การพยากรณ์

รายงานได้ทำขึ้นเมื่อ 10 ชั่วโมงและ 10 นาทีที่แล้ว ณ เวลา 14:00 UTC
การพยากรณ์มีผลตั้งแต่วันที่ 18 ณ เวลา 15 UTC จนถึงวันที่ 18 ณ เวลา 19 UTC
ลม 8 นอตจากเหนือ/ตะวันตกเฉียงเหนือ
ทัศนวิสัย 10 กม. หรือมากกว่า
มีเมฆกระจายเป็นบางส่วนที่ความสูง 3000 ฟุต

TAF: EGBJ 181400Z 1815/1819 34008KT 9999 SCT030

สังเกตการณ์สภาพอากาศและพยากรณ์อากาศของสนามบินมากกว่า 4000 แห่ง (รายงาน METAR และ TAF).

สถานีที่ดูได้จะแสดงไว้ด้วยจุดสีเหลืองและสีแดงบนแผนที่.

เลื่อนเมาส์ไปเหนือจุดเพื่อดูชื่อสถานี.

แล้วคลิกเพื่อดูสังเกตการณ์และการพยากรณ์สภาพอากาศ.

ในการเปลี่ยนแผนที่: คลิกที่ปุ่มสีเขียวที่มีกากบาทสีดำเพื่อซูมเข้า; ที่ปุ่มสีเขียวที่มีขีดเพื่อซูมออก; หรือที่ลูกศรสีเขียวเพื่อไปยังแผนที่ที่อยู่ติดกัน.


METAR-TAF: